createdAt,value
2019-03-13T00:02:19.537Z,0.93
2019-03-13T00:04:46.608Z,0.57
2019-03-13T00:07:13.585Z,0.30
2019-03-13T00:09:40.470Z,0.30
2019-03-13T00:12:07.445Z,0.30
2019-03-13T00:14:34.216Z,0.10
2019-03-13T00:17:00.991Z,0.20
2019-03-13T00:19:27.762Z,0.13
2019-03-13T00:21:54.765Z,0.10
2019-03-13T00:24:21.538Z,0.10
2019-03-13T00:26:48.442Z,0.10
2019-03-13T00:29:15.320Z,0.10
2019-03-13T00:31:42.107Z,0.07
2019-03-13T00:34:09.077Z,0.10
2019-03-13T00:36:35.887Z,0.00
2019-03-13T00:39:04.514Z,0.10
2019-03-13T00:41:31.319Z,0.10
2019-03-13T00:43:58.181Z,0.10
2019-03-13T00:46:24.954Z,0.10
2019-03-13T00:48:51.713Z,0.13
2019-03-13T00:51:18.615Z,0.20
2019-03-13T00:53:45.483Z,0.00
2019-03-13T00:56:13.192Z,0.30
2019-03-13T00:58:40.072Z,0.10
2019-03-13T01:01:22.918Z,0.20
2019-03-13T01:04:12.141Z,0.30
2019-03-13T01:06:41.508Z,0.20
2019-03-13T01:09:08.377Z,0.37
2019-03-13T01:11:35.245Z,0.30
2019-03-13T01:14:02.220Z,0.30
2019-03-13T01:16:29.186Z,0.30
2019-03-13T01:18:55.951Z,0.40
2019-03-13T01:21:22.824Z,0.53
2019-03-13T01:23:49.701Z,0.30
2019-03-13T01:26:16.477Z,0.30
2019-03-13T01:28:43.240Z,0.30
2019-03-13T01:31:35.316Z,0.53
2019-03-13T01:34:13.907Z,0.33
2019-03-13T01:36:40.685Z,0.30
2019-03-13T01:39:07.550Z,0.50
2019-03-13T01:41:34.344Z,0.53
2019-03-13T01:44:01.222Z,0.57
2019-03-13T01:46:28.100Z,0.50
2019-03-13T01:48:54.858Z,0.30
2019-03-13T01:51:21.741Z,0.53
2019-03-13T01:53:48.604Z,0.30
2019-03-13T01:56:15.467Z,0.50
2019-03-13T01:58:42.248Z,0.40
2019-03-13T02:01:09.021Z,0.40
2019-03-13T02:03:35.807Z,0.40
2019-03-13T02:06:02.779Z,0.40
2019-03-13T02:08:29.564Z,0.30
2019-03-13T02:10:56.444Z,0.50
2019-03-13T02:13:23.362Z,0.73
2019-03-13T02:15:50.331Z,0.60
2019-03-13T02:18:17.329Z,0.50
2019-03-13T02:20:44.145Z,0.53
2019-03-13T02:23:11.218Z,0.63
2019-03-13T02:25:38.018Z,0.50
2019-03-13T02:28:05.018Z,0.50
2019-03-13T02:30:32.112Z,0.90
2019-03-13T02:32:58.989Z,0.53
2019-03-13T02:35:25.877Z,0.60
2019-03-13T02:37:52.801Z,0.80
2019-03-13T02:40:19.747Z,0.70
2019-03-13T02:42:46.634Z,1.00
2019-03-13T02:45:13.912Z,0.40
2019-03-13T02:47:40.895Z,0.60
2019-03-13T02:50:08.536Z,0.87
2019-03-13T02:52:35.339Z,0.70
2019-03-13T02:55:02.419Z,0.67
2019-03-13T02:57:29.299Z,0.80
2019-03-13T02:59:56.079Z,1.23
2019-03-13T03:02:57.550Z,0.70
2019-03-13T03:05:24.643Z,0.70
2019-03-13T03:07:51.629Z,0.60
2019-03-13T03:10:18.417Z,0.57
2019-03-13T03:12:45.310Z,0.60
2019-03-13T03:15:14.426Z,0.70
2019-03-13T03:17:41.411Z,0.50
2019-03-13T03:20:10.698Z,0.50
2019-03-13T03:22:37.590Z,0.70
2019-03-13T03:25:04.931Z,0.70
2019-03-13T03:27:31.727Z,0.77
2019-03-13T03:29:58.524Z,1.00
2019-03-13T03:32:25.312Z,0.83
2019-03-13T03:34:52.384Z,0.70
2019-03-13T03:37:19.267Z,0.60
2019-03-13T03:39:46.164Z,0.80
2019-03-13T03:42:12.945Z,0.80
2019-03-13T03:44:39.839Z,0.77
2019-03-13T03:47:06.825Z,1.10
2019-03-13T03:49:33.855Z,0.90
2019-03-13T03:52:00.697Z,1.27
2019-03-13T03:54:27.521Z,0.90
2019-03-13T03:56:54.545Z,1.00
2019-03-13T03:59:21.525Z,0.70
2019-03-13T04:01:48.323Z,0.90
2019-03-13T04:04:15.239Z,1.10
2019-03-13T04:06:42.224Z,0.73
2019-03-13T04:09:09.103Z,0.97
2019-03-13T04:11:36.116Z,0.73
2019-03-13T04:14:03.135Z,0.73
2019-03-13T04:16:29.918Z,0.60
2019-03-13T04:18:57.040Z,1.00
2019-03-13T04:21:24.010Z,1.33
2019-03-13T04:23:51.018Z,1.13
2019-03-13T04:26:18.017Z,1.00
2019-03-13T04:28:44.898Z,1.10
2019-03-13T04:31:11.901Z,0.70
2019-03-13T04:33:38.798Z,1.10
2019-03-13T04:36:05.612Z,0.93
2019-03-13T04:38:32.506Z,0.90
2019-03-13T04:40:59.360Z,1.03
2019-03-13T04:43:26.266Z,1.23
2019-03-13T04:45:53.021Z,0.90
2019-03-13T04:48:19.804Z,1.07
2019-03-13T04:50:46.680Z,0.80
2019-03-13T04:53:13.465Z,0.90
2019-03-13T04:55:40.249Z,0.90
2019-03-13T04:58:07.026Z,0.93
2019-03-13T05:00:33.908Z,1.10
2019-03-13T05:03:00.740Z,0.80
2019-03-13T05:05:56.740Z,0.90
2019-03-13T05:08:44.494Z,1.30
2019-03-13T05:11:01.961Z,1.20
2019-03-13T05:13:28.846Z,0.93
2019-03-13T05:15:55.681Z,1.13
2019-03-13T05:18:22.507Z,0.83
2019-03-13T05:20:49.290Z,1.00
2019-03-13T05:23:16.069Z,0.87
2019-03-13T05:25:42.868Z,0.70
2019-03-13T05:28:09.748Z,0.90
2019-03-13T05:30:36.665Z,1.00
2019-03-13T05:33:03.620Z,0.80
2019-03-13T05:35:30.617Z,1.10
2019-03-13T05:37:57.502Z,0.63
2019-03-13T05:40:24.404Z,1.00
2019-03-13T05:42:51.354Z,1.00
2019-03-13T05:45:18.254Z,0.53
2019-03-13T05:47:45.214Z,0.70
2019-03-13T05:50:12.193Z,0.80
2019-03-13T05:52:38.985Z,0.80
2019-03-13T05:55:05.985Z,1.00
2019-03-13T05:57:32.856Z,0.70
2019-03-13T05:59:59.629Z,0.50
2019-03-13T06:02:26.406Z,0.80
2019-03-13T06:04:53.176Z,0.67
2019-03-13T06:07:19.954Z,0.67
2019-03-13T06:09:46.843Z,0.97
2019-03-13T06:12:13.633Z,0.50
2019-03-13T06:14:40.400Z,0.70
2019-03-13T06:17:07.310Z,0.47
2019-03-13T06:19:34.106Z,0.60
2019-03-13T06:22:01.006Z,0.93
2019-03-13T06:24:27.795Z,1.53
2019-03-13T06:26:54.826Z,1.43
2019-03-13T06:29:21.621Z,0.70
2019-03-13T06:31:48.547Z,0.73
2019-03-13T06:34:15.453Z,2.37
2019-03-13T06:36:42.383Z,0.97
2019-03-13T06:39:09.489Z,0.80
2019-03-13T06:41:36.609Z,0.85
2019-03-13T06:44:03.630Z,1.30
2019-03-13T06:46:30.696Z,1.30
2019-03-13T06:48:57.638Z,1.10
2019-03-13T06:51:24.477Z,1.45
2019-03-13T06:53:51.546Z,1.00
2019-03-13T06:56:18.603Z,1.00
2019-03-13T06:59:05.290Z,0.87
2019-03-13T07:01:53.954Z,0.80
2019-03-13T07:04:46.725Z,0.93
2019-03-13T07:07:25.425Z,0.80
2019-03-13T07:10:09.881Z,0.80
2019-03-13T07:13:05.110Z,0.70
2019-03-13T07:15:48.729Z,0.70
2019-03-13T07:18:34.116Z,0.93
2019-03-13T07:21:16.798Z,0.93
2019-03-13T07:24:05.947Z,0.70
2019-03-13T07:26:52.439Z,0.60
2019-03-13T07:29:37.547Z,0.87
2019-03-13T07:32:25.070Z,0.67
2019-03-13T07:35:10.234Z,0.80
2019-03-13T07:38:01.670Z,0.70
2019-03-13T07:40:46.537Z,0.70
2019-03-13T07:43:39.083Z,0.73
2019-03-13T07:46:12.868Z,0.80
2019-03-13T07:48:52.626Z,0.70
2019-03-13T07:51:30.418Z,0.40
2019-03-13T07:54:15.495Z,0.77
2019-03-13T07:57:00.838Z,0.70
2019-03-13T07:59:47.279Z,0.70
2019-03-13T08:02:32.469Z,0.50
2019-03-13T08:05:13.109Z,0.70
2019-03-13T08:07:58.069Z,0.30
2019-03-13T08:10:34.717Z,0.87
2019-03-13T08:13:09.337Z,0.47
2019-03-13T08:15:47.762Z,1.00
2019-03-13T08:18:33.173Z,0.60
2019-03-13T08:21:18.386Z,0.40
2019-03-13T08:24:00.540Z,0.57
2019-03-13T08:26:45.714Z,0.70
2019-03-13T08:29:30.465Z,0.47
2019-03-13T08:32:04.875Z,0.40
2019-03-13T08:34:37.958Z,0.50
2019-03-13T08:37:43.001Z,0.87
2019-03-13T08:40:18.845Z,0.83
2019-03-13T08:43:10.587Z,0.70
2019-03-13T08:45:57.045Z,0.70
2019-03-13T08:48:31.124Z,0.60
2019-03-13T08:51:23.657Z,0.60
2019-03-13T08:53:59.402Z,0.57
2019-03-13T08:57:00.964Z,0.47
2019-03-13T08:59:39.961Z,0.70
2019-03-13T09:02:23.716Z,0.60
2019-03-13T09:05:08.475Z,0.57
2019-03-13T09:07:53.485Z,0.60
2019-03-13T09:10:38.567Z,0.57
2019-03-13T09:13:17.838Z,0.60
2019-03-13T09:15:54.729Z,0.50
2019-03-13T09:18:41.170Z,0.37
2019-03-13T09:21:16.149Z,0.70
2019-03-13T09:24:11.143Z,0.70
2019-03-13T09:27:12.478Z,0.60
2019-03-13T09:29:54.492Z,0.57
2019-03-13T09:32:39.923Z,0.50
2019-03-13T09:35:29.286Z,0.37
2019-03-13T09:38:19.846Z,0.63
2019-03-13T09:40:58.545Z,0.73
2019-03-13T09:43:32.367Z,0.60
2019-03-13T09:46:24.916Z,0.60
2019-03-13T09:49:14.396Z,0.60
2019-03-13T09:51:53.811Z,0.53
2019-03-13T09:54:40.381Z,0.77
2019-03-13T09:57:32.953Z,0.60
2019-03-13T10:00:22.946Z,0.53
2019-03-13T10:03:08.012Z,0.50
2019-03-13T10:05:42.118Z,0.50
2019-03-13T10:08:35.922Z,0.70
2019-03-13T10:11:14.534Z,0.60
2019-03-13T10:14:13.066Z,0.50
2019-03-13T10:17:09.481Z,1.13
2019-03-13T10:19:50.195Z,0.67
2019-03-13T10:22:30.208Z,0.70
2019-03-13T10:25:34.894Z,0.90
2019-03-13T10:28:10.173Z,0.90
2019-03-13T10:30:46.790Z,1.10
2019-03-13T10:33:33.366Z,0.83
2019-03-13T10:36:19.936Z,0.70
2019-03-13T10:39:18.652Z,0.73
2019-03-13T10:41:53.934Z,0.57
2019-03-13T10:44:33.070Z,0.80
2019-03-13T10:47:05.028Z,0.93
2019-03-13T10:49:39.350Z,0.83
2019-03-13T10:52:13.545Z,0.70
2019-03-13T10:55:02.873Z,1.03
2019-03-13T10:57:58.557Z,0.80
2019-03-13T11:00:35.529Z,0.70
2019-03-13T11:03:20.989Z,0.97
2019-03-13T11:06:07.538Z,0.83
2019-03-13T11:08:44.704Z,0.80
2019-03-13T11:11:17.043Z,0.70
2019-03-13T11:13:50.054Z,0.97
2019-03-13T11:16:39.538Z,0.80
2019-03-13T11:19:14.665Z,0.70
2019-03-13T11:22:03.195Z,0.50
2019-03-13T11:24:34.755Z,0.70
2019-03-13T11:27:21.326Z,1.00
2019-03-13T11:30:05.893Z,1.17
2019-03-13T11:32:58.442Z,1.17
2019-03-13T11:35:38.505Z,1.20
2019-03-13T11:38:15.183Z,1.00
2019-03-13T11:41:10.530Z,1.20
2019-03-13T11:44:03.540Z,1.03
2019-03-13T11:46:55.810Z,1.20
2019-03-13T11:49:41.162Z,1.00
2019-03-13T11:52:26.397Z,1.13
2019-03-13T11:54:59.034Z,1.00
2019-03-13T11:57:38.853Z,1.17
2019-03-13T12:00:27.079Z,1.23
2019-03-13T12:03:12.206Z,0.83
2019-03-13T12:05:54.275Z,0.90
2019-03-13T12:08:45.674Z,0.90
2019-03-13T12:11:41.017Z,1.00
2019-03-13T12:14:45.816Z,0.97
2019-03-13T12:17:35.385Z,0.50
2019-03-13T12:20:37.211Z,1.00
2019-03-13T12:23:23.909Z,0.60
2019-03-13T12:26:05.350Z,0.83
2019-03-13T12:28:55.094Z,1.30
2019-03-13T12:31:38.964Z,0.70
2019-03-13T12:34:37.380Z,1.37
2019-03-13T12:37:12.723Z,0.87
2019-03-13T12:39:58.229Z,1.10
2019-03-13T12:42:39.353Z,1.17
2019-03-13T12:45:23.303Z,0.70
2019-03-13T12:47:55.244Z,1.07
2019-03-13T12:50:40.249Z,0.90
2019-03-13T12:53:15.727Z,0.90
2019-03-13T12:56:07.101Z,1.00
2019-03-13T12:58:52.002Z,0.93
2019-03-13T13:01:41.245Z,0.90
2019-03-13T13:04:30.758Z,0.90
2019-03-13T13:07:15.470Z,1.20
2019-03-13T13:10:20.121Z,0.70
2019-03-13T13:13:09.623Z,1.10
2019-03-13T13:15:55.047Z,1.00
2019-03-13T13:18:48.069Z,1.67
2019-03-13T13:21:14.993Z,1.63
2019-03-13T13:23:42.004Z,1.70
2019-03-13T13:26:09.003Z,0.70
2019-03-13T13:28:36.002Z,0.93
2019-03-13T13:31:02.988Z,0.70
2019-03-13T13:33:29.881Z,0.80
2019-03-13T13:35:56.878Z,0.77
2019-03-13T13:38:23.780Z,0.60
2019-03-13T13:40:50.677Z,0.87
2019-03-13T13:43:17.566Z,0.80
2019-03-13T13:45:56.642Z,0.80
2019-03-13T13:48:23.530Z,0.60
2019-03-13T13:50:50.434Z,0.57
2019-03-13T13:53:17.334Z,0.90
2019-03-13T13:55:44.225Z,0.60
2019-03-13T13:58:11.236Z,0.93
2019-03-13T14:00:38.219Z,0.70
2019-03-13T14:03:05.113Z,0.50
2019-03-13T14:05:32.085Z,0.80
2019-03-13T14:07:59.086Z,0.70
2019-03-13T14:10:25.991Z,0.80
2019-03-13T14:12:52.987Z,0.60
2019-03-13T14:15:19.975Z,1.23
2019-03-13T14:17:47.144Z,0.87
2019-03-13T14:20:14.156Z,0.80
2019-03-13T14:22:41.175Z,1.40
2019-03-13T14:25:08.196Z,1.10
2019-03-13T14:27:35.113Z,0.90
2019-03-13T14:30:02.131Z,1.43
2019-03-13T14:32:28.930Z,0.90
2019-03-13T14:34:55.826Z,1.00
2019-03-13T14:37:22.729Z,0.90
2019-03-13T14:39:49.727Z,1.00
2019-03-13T14:42:16.541Z,0.70
2019-03-13T14:44:44.231Z,1.10
2019-03-13T14:47:11.291Z,1.20
2019-03-13T14:49:38.066Z,1.03
2019-03-13T14:52:05.097Z,0.93
2019-03-13T14:54:31.989Z,0.90
2019-03-13T14:56:58.875Z,1.47
2019-03-13T14:59:25.769Z,1.43
2019-03-13T15:01:52.752Z,0.90
2019-03-13T15:04:19.558Z,0.80
2019-03-13T15:06:46.464Z,0.57
2019-03-13T15:09:13.353Z,1.10
2019-03-13T15:11:40.260Z,1.27
2019-03-13T15:14:07.090Z,0.80
2019-03-13T15:16:33.961Z,1.00
2019-03-13T15:19:00.870Z,0.80
2019-03-13T15:21:27.838Z,1.33
2019-03-13T15:23:54.726Z,1.43
2019-03-13T15:26:21.516Z,1.20
2019-03-13T15:28:48.315Z,1.50
2019-03-13T15:31:15.198Z,1.70
2019-03-13T15:33:42.199Z,1.47
2019-03-13T15:36:09.102Z,1.40
2019-03-13T15:38:35.920Z,1.10
2019-03-13T15:41:03.021Z,1.50
2019-03-13T15:43:29.812Z,1.67
2019-03-13T15:45:56.804Z,1.43
2019-03-13T15:48:23.707Z,1.40
2019-03-13T15:50:50.589Z,1.40
2019-03-13T15:53:17.500Z,1.30
2019-03-13T15:55:44.388Z,1.30
2019-03-13T15:58:11.289Z,1.57
2019-03-13T16:00:38.294Z,0.97
2019-03-13T16:03:05.198Z,1.10
2019-03-13T16:05:34.915Z,1.50
2019-03-13T16:08:01.729Z,2.17
2019-03-13T16:10:28.726Z,1.43
2019-03-13T16:12:58.239Z,1.50
2019-03-13T16:15:26.709Z,1.60
2019-03-13T16:17:53.721Z,1.50
2019-03-13T16:20:20.714Z,2.77
2019-03-13T16:22:52.917Z,1.60
2019-03-13T16:25:19.849Z,2.17
2019-03-13T16:27:46.799Z,1.80
2019-03-13T16:30:15.719Z,1.30
2019-03-13T16:32:44.202Z,2.13
2019-03-13T16:35:11.550Z,1.73
2019-03-13T16:37:38.603Z,1.90
2019-03-13T16:40:07.078Z,1.93
2019-03-13T16:42:33.991Z,1.23
2019-03-13T16:45:00.780Z,1.47
2019-03-13T16:47:27.771Z,1.03
2019-03-13T16:49:54.677Z,2.07
2019-03-13T16:52:21.677Z,1.63
2019-03-13T16:54:48.593Z,0.93
2019-03-13T16:57:15.481Z,1.30
2019-03-13T16:59:42.481Z,1.40
2019-03-13T17:02:09.474Z,1.57
2019-03-13T17:04:36.394Z,1.87
2019-03-13T17:07:03.378Z,1.67
2019-03-13T17:09:30.364Z,1.50
2019-03-13T17:11:57.347Z,1.37
2019-03-13T17:14:24.253Z,1.90
2019-03-13T17:16:51.237Z,1.63
2019-03-13T17:19:18.150Z,1.60
2019-03-13T17:21:45.144Z,1.60
2019-03-13T17:24:11.945Z,2.00
2019-03-13T17:26:38.755Z,1.83
2019-03-13T17:29:05.652Z,1.80
2019-03-13T17:31:32.542Z,1.60
2019-03-13T17:33:59.569Z,1.60
2019-03-13T17:36:26.528Z,1.60
2019-03-13T17:38:53.434Z,2.10
2019-03-13T17:41:20.576Z,2.10
2019-03-13T17:43:47.461Z,1.50
2019-03-13T17:46:14.458Z,2.00
2019-03-13T17:48:41.252Z,2.40
2019-03-13T17:51:08.289Z,2.67
2019-03-13T17:53:35.341Z,2.40
2019-03-13T17:56:02.237Z,2.50
2019-03-13T17:58:29.120Z,2.17
2019-03-13T18:00:56.225Z,2.30
2019-03-13T18:03:23.118Z,2.40
2019-03-13T18:05:50.111Z,2.30
2019-03-13T18:08:17.008Z,2.00
2019-03-13T18:10:43.931Z,1.43
2019-03-13T18:13:10.917Z,1.93
2019-03-13T18:15:37.946Z,2.03
2019-03-13T18:18:04.937Z,1.80
2019-03-13T18:20:31.848Z,2.00
2019-03-13T18:22:58.888Z,1.50
2019-03-13T18:25:25.968Z,1.50
2019-03-13T18:27:52.870Z,1.60
2019-03-13T18:30:20.999Z,1.27
2019-03-13T18:32:48.010Z,1.30
2019-03-13T18:35:15.245Z,1.53
2019-03-13T18:37:42.259Z,1.30
2019-03-13T18:40:09.423Z,1.27
2019-03-13T18:42:36.311Z,1.47
2019-03-13T18:45:04.611Z,1.53
2019-03-13T18:47:31.509Z,1.53
2019-03-13T18:49:58.532Z,1.83
2019-03-13T18:52:25.458Z,0.90
2019-03-13T18:54:52.534Z,1.20
2019-03-13T18:57:19.314Z,1.57
2019-03-13T18:59:46.118Z,1.37
2019-03-13T19:02:13.033Z,2.00
2019-03-13T19:04:39.946Z,2.20
2019-03-13T19:07:06.864Z,1.87
2019-03-13T19:09:33.849Z,2.30
2019-03-13T19:12:00.857Z,1.50
2019-03-13T19:14:27.929Z,1.87
2019-03-13T19:16:54.939Z,1.97
2019-03-13T19:19:21.957Z,1.50
2019-03-13T19:21:48.766Z,2.03
2019-03-13T19:24:15.577Z,1.67
2019-03-13T19:26:42.492Z,2.77
2019-03-13T19:29:09.481Z,1.80
2019-03-13T19:31:36.287Z,1.63
2019-03-13T19:34:03.299Z,2.30
2019-03-13T19:36:30.115Z,1.80
2019-03-13T19:38:57.029Z,2.30
2019-03-13T19:41:24.054Z,2.50
2019-03-13T19:43:51.087Z,2.20
2019-03-13T19:46:18.079Z,2.10
2019-03-13T19:48:44.987Z,1.50
2019-03-13T19:51:11.890Z,1.73
2019-03-13T19:53:41.752Z,1.90
2019-03-13T19:56:07.719Z,1.50
2019-03-13T19:58:34.715Z,1.87
2019-03-13T20:01:02.164Z,1.70
2019-03-13T20:03:29.383Z,1.80
2019-03-13T20:05:56.270Z,1.70
2019-03-13T20:08:23.359Z,2.23
2019-03-13T20:10:50.293Z,1.83
2019-03-13T20:13:17.340Z,1.87
2019-03-13T20:15:44.462Z,1.73
2019-03-13T20:18:11.613Z,1.80
2019-03-13T20:20:38.733Z,1.57
2019-03-13T20:23:05.784Z,1.87
2019-03-13T20:25:32.854Z,2.27
2019-03-13T20:27:59.651Z,1.40
2019-03-13T20:30:26.709Z,1.77
2019-03-13T20:32:53.718Z,1.60
2019-03-13T20:35:20.748Z,1.60
2019-03-13T20:37:47.813Z,1.57
2019-03-13T20:40:16.986Z,1.70
2019-03-13T20:42:43.985Z,2.13
2019-03-13T20:45:12.553Z,1.83
2019-03-13T20:47:39.569Z,1.83
2019-03-13T20:50:06.862Z,1.90
2019-03-13T20:52:33.893Z,1.30
2019-03-13T20:55:00.821Z,1.50
2019-03-13T20:57:27.848Z,1.77
2019-03-13T20:59:54.787Z,1.67
2019-03-13T21:02:22.160Z,2.00
2019-03-13T21:04:49.263Z,2.07
2019-03-13T21:07:16.249Z,1.90
2019-03-13T21:09:43.069Z,1.77
2019-03-13T21:12:09.968Z,2.40
2019-03-13T21:14:36.887Z,3.33
2019-03-13T21:17:03.966Z,2.17
2019-03-13T21:19:30.876Z,2.50
2019-03-13T21:21:57.855Z,2.47
2019-03-13T21:24:24.841Z,2.53
2019-03-13T21:26:51.851Z,4.30
2019-03-13T21:29:18.951Z,2.80
2019-03-13T21:31:45.965Z,2.50
2019-03-13T21:34:12.851Z,2.57
2019-03-13T21:36:39.901Z,3.17
2019-03-13T21:39:07.026Z,2.63
2019-03-13T21:41:35.520Z,3.17
2019-03-13T21:44:02.937Z,2.60
2019-03-13T21:46:29.927Z,2.23
2019-03-13T21:48:56.849Z,1.63
2019-03-13T21:51:23.839Z,3.33
2019-03-13T21:53:50.865Z,2.10
2019-03-13T21:56:17.871Z,1.77
2019-03-13T21:58:44.865Z,1.67
2019-03-13T22:01:19.749Z,1.17
2019-03-13T22:03:40.518Z,1.37
2019-03-13T22:06:07.599Z,1.30
2019-03-13T22:08:34.400Z,1.03
2019-03-13T22:11:01.548Z,1.07
2019-03-13T22:13:28.733Z,1.13
2019-03-13T22:15:58.652Z,1.50
2019-03-13T22:18:24.549Z,1.67
2019-03-13T22:20:51.549Z,1.20
2019-03-13T22:23:18.437Z,1.40
2019-03-13T22:25:45.494Z,1.83
2019-03-13T22:28:12.520Z,1.37
2019-03-13T22:30:39.506Z,1.40
2019-03-13T22:33:06.423Z,1.37
2019-03-13T22:35:33.426Z,1.23
2019-03-13T22:38:00.489Z,1.10
2019-03-13T22:40:27.483Z,1.07
2019-03-13T22:42:54.487Z,1.10
2019-03-13T22:45:21.574Z,1.53
2019-03-13T22:47:48.601Z,1.40
2019-03-13T22:50:16.423Z,2.00
2019-03-13T22:52:43.466Z,1.70
2019-03-13T22:55:11.058Z,2.20
2019-03-13T22:57:38.052Z,1.83
2019-03-13T23:00:13.068Z,2.53
2019-03-13T23:02:40.078Z,2.13
2019-03-13T23:05:07.184Z,1.77
2019-03-13T23:07:34.189Z,1.60
2019-03-13T23:10:01.205Z,1.83
2019-03-13T23:12:30.291Z,2.33
2019-03-13T23:14:56.886Z,2.10
2019-03-13T23:17:23.816Z,2.50
2019-03-13T23:19:50.720Z,2.30
2019-03-13T23:22:17.617Z,2.20
2019-03-13T23:24:44.518Z,3.00
2019-03-13T23:27:11.451Z,2.37
2019-03-13T23:29:38.258Z,2.70
2019-03-13T23:32:05.264Z,2.53
2019-03-13T23:34:32.766Z,2.83
2019-03-13T23:36:59.546Z,3.10
2019-03-13T23:39:26.454Z,2.70
2019-03-13T23:41:53.253Z,2.50
2019-03-13T23:44:20.418Z,2.57
2019-03-13T23:46:47.296Z,2.20
2019-03-13T23:49:14.194Z,2.53
2019-03-13T23:51:40.990Z,1.80
2019-03-13T23:54:07.989Z,2.43
2019-03-13T23:56:34.878Z,2.20
2019-03-13T23:59:01.696Z,2.57
